createdAt,value
2022-08-25T00:00:22.571Z,20.65
2022-08-25T00:03:05.323Z,20.58
2022-08-25T00:05:33.404Z,20.62
2022-08-25T00:08:03.666Z,20.64
2022-08-25T00:10:35.240Z,20.64
2022-08-25T00:13:05.100Z,20.61
2022-08-25T00:15:33.408Z,20.60
2022-08-25T00:18:02.132Z,20.58
2022-08-25T00:20:30.909Z,20.59
2022-08-25T00:22:58.838Z,20.55
2022-08-25T00:25:27.098Z,20.53
2022-08-25T00:27:57.102Z,20.51
2022-08-25T00:30:26.746Z,20.44
2022-08-25T00:32:57.088Z,20.37
2022-08-25T00:35:27.219Z,20.38
2022-08-25T00:37:55.170Z,20.38
2022-08-25T00:40:26.081Z,20.37
2022-08-25T00:42:56.131Z,20.33
2022-08-25T00:45:24.876Z,20.32
2022-08-25T00:47:52.951Z,20.32
2022-08-25T00:50:22.654Z,20.34
2022-08-25T00:52:59.417Z,20.35
2022-08-25T00:55:30.711Z,20.32
2022-08-25T00:58:20.113Z,20.23
2022-08-25T01:00:52.973Z,20.19
2022-08-25T01:03:23.868Z,20.22
2022-08-25T01:06:03.162Z,20.25
2022-08-25T01:08:33.520Z,20.24
2022-08-25T01:11:08.871Z,20.21
2022-08-25T01:13:51.084Z,20.19
2022-08-25T01:16:19.152Z,20.19
2022-08-25T01:18:54.631Z,20.13
2022-08-25T01:21:26.479Z,20.15
2022-08-25T01:23:58.212Z,20.13
2022-08-25T01:26:31.137Z,20.12
2022-08-25T01:29:21.083Z,20.12
2022-08-25T01:31:55.887Z,20.01
2022-08-25T01:34:27.673Z,19.93
2022-08-25T01:36:58.550Z,19.81
2022-08-25T01:39:29.523Z,19.75
2022-08-25T01:42:04.646Z,19.74
2022-08-25T01:44:35.870Z,19.73
2022-08-25T01:47:06.088Z,19.70
2022-08-25T01:49:35.243Z,19.69
2022-08-25T01:52:24.840Z,19.68
2022-08-25T01:54:52.741Z,19.65
2022-08-25T01:57:20.612Z,19.68
2022-08-25T01:59:48.616Z,19.65
2022-08-25T02:02:18.328Z,19.71
2022-08-25T02:04:46.385Z,19.71
2022-08-25T02:07:14.447Z,19.70
2022-08-25T02:09:42.431Z,19.67
2022-08-25T02:12:11.098Z,19.67
2022-08-25T02:14:39.043Z,19.69
2022-08-25T02:17:09.795Z,19.70
2022-08-25T02:19:38.069Z,19.68
2022-08-25T02:22:06.882Z,19.62
2022-08-25T02:24:35.130Z,19.63
2022-08-25T02:27:04.159Z,19.63
2022-08-25T02:29:33.737Z,19.62
2022-08-25T02:32:03.035Z,19.64
2022-08-25T02:34:31.103Z,19.70
2022-08-25T02:36:59.048Z,19.73
2022-08-25T02:39:27.038Z,19.75
2022-08-25T02:41:55.027Z,19.75
2022-08-25T02:44:22.887Z,19.76
2022-08-25T02:46:50.733Z,19.73
2022-08-25T02:49:18.744Z,19.70
2022-08-25T02:51:46.616Z,19.74
2022-08-25T02:54:14.571Z,19.74
2022-08-25T02:56:43.073Z,19.72
2022-08-25T02:59:12.254Z,19.74
2022-08-25T03:01:40.178Z,19.70
2022-08-25T03:04:08.236Z,19.69
2022-08-25T03:06:36.098Z,19.68
2022-08-25T03:09:04.670Z,19.74
2022-08-25T03:11:33.369Z,19.77
2022-08-25T03:14:01.292Z,19.74
2022-08-25T03:16:31.828Z,19.73
2022-08-25T03:19:00.626Z,19.69
2022-08-25T03:21:29.736Z,19.65
2022-08-25T03:23:58.991Z,19.63
2022-08-25T03:26:45.851Z,19.63
2022-08-25T03:29:13.956Z,19.60
2022-08-25T03:31:44.851Z,19.58
2022-08-25T03:34:18.458Z,19.57
2022-08-25T03:36:49.989Z,19.57
2022-08-25T03:39:24.698Z,19.56
2022-08-25T03:41:53.858Z,19.55
2022-08-25T03:44:22.490Z,19.49
2022-08-25T03:46:52.245Z,19.49
2022-08-25T03:49:23.875Z,19.47
2022-08-25T03:51:54.821Z,19.47
2022-08-25T03:54:25.707Z,19.42
2022-08-25T03:56:53.991Z,19.44
2022-08-25T03:59:22.186Z,19.46
2022-08-25T04:01:54.781Z,19.47
2022-08-25T04:04:24.523Z,19.48
2022-08-25T04:06:53.034Z,19.52
2022-08-25T04:09:22.386Z,19.57
2022-08-25T04:11:53.350Z,19.62
2022-08-25T04:14:23.451Z,19.66
2022-08-25T04:16:53.091Z,19.62
2022-08-25T04:19:22.051Z,19.69
2022-08-25T04:21:50.064Z,19.74
2022-08-25T04:24:18.160Z,19.75
2022-08-25T04:26:50.347Z,19.81
2022-08-25T04:29:23.551Z,19.86
2022-08-25T04:31:54.123Z,19.85
2022-08-25T04:34:30.537Z,19.87
2022-08-25T04:37:03.395Z,19.92
2022-08-25T04:39:32.237Z,20.00
2022-08-25T04:42:01.298Z,20.07
2022-08-25T04:44:30.838Z,20.07
2022-08-25T04:47:01.504Z,20.09
2022-08-25T04:49:29.707Z,20.08
2022-08-25T04:51:57.854Z,20.07
2022-08-25T04:54:26.227Z,20.09
2022-08-25T04:56:58.088Z,20.20
2022-08-25T04:59:29.466Z,20.25
2022-08-25T05:02:03.010Z,20.21
2022-08-25T05:04:32.733Z,20.29
2022-08-25T05:07:01.448Z,20.27
2022-08-25T05:09:32.294Z,20.22
2022-08-25T05:12:03.227Z,20.27
2022-08-25T05:14:32.569Z,20.29
2022-08-25T05:17:01.281Z,20.29
2022-08-25T05:19:29.511Z,20.34
2022-08-25T05:21:57.738Z,20.27
2022-08-25T05:24:26.877Z,20.34
2022-08-25T05:26:55.626Z,20.38
2022-08-25T05:29:23.737Z,20.43
2022-08-25T05:31:51.871Z,20.54
2022-08-25T05:34:20.584Z,20.68
2022-08-25T05:36:49.329Z,20.75
2022-08-25T05:39:17.418Z,20.58
2022-08-25T05:41:45.316Z,20.58
2022-08-25T05:44:15.917Z,20.47
2022-08-25T05:46:45.763Z,20.36
2022-08-25T05:49:13.550Z,20.53
2022-08-25T05:51:41.391Z,20.70
2022-08-25T05:54:10.364Z,20.84
2022-08-25T05:56:38.255Z,20.86
2022-08-25T05:59:09.314Z,20.89
2022-08-25T06:01:56.513Z,20.90
2022-08-25T06:04:24.699Z,21.02
2022-08-25T06:06:54.812Z,21.17
2022-08-25T06:09:24.390Z,21.25
2022-08-25T06:11:55.175Z,21.24
2022-08-25T06:14:24.463Z,21.22
2022-08-25T06:16:53.269Z,21.32
2022-08-25T06:19:23.199Z,21.29
2022-08-25T06:21:55.775Z,21.38
2022-08-25T06:24:26.520Z,21.39
2022-08-25T06:26:55.300Z,21.52
2022-08-25T06:29:24.244Z,21.65
2022-08-25T06:31:52.752Z,21.72
2022-08-25T06:34:23.957Z,21.82
2022-08-25T06:36:53.154Z,21.91
2022-08-25T06:39:21.945Z,21.74
2022-08-25T06:41:54.936Z,21.81
2022-08-25T06:44:24.815Z,21.69
2022-08-25T06:46:52.762Z,21.73
2022-08-25T06:49:21.519Z,21.77
2022-08-25T06:51:50.534Z,21.76
2022-08-25T06:54:18.372Z,21.69
2022-08-25T06:56:46.978Z,21.59
2022-08-25T06:59:17.923Z,21.66
2022-08-25T07:01:45.966Z,21.86
2022-08-25T07:04:18.082Z,21.96
2022-08-25T07:06:46.824Z,22.21
2022-08-25T07:09:15.149Z,22.51
2022-08-25T07:11:45.690Z,22.54
2022-08-25T07:14:16.972Z,22.28
2022-08-25T07:16:49.615Z,22.22
2022-08-25T07:19:22.101Z,22.34
2022-08-25T07:21:53.104Z,22.29
2022-08-25T07:24:23.041Z,22.49
2022-08-25T07:26:51.879Z,22.66
2022-08-25T07:29:32.227Z,22.73
2022-08-25T07:32:03.926Z,22.82
2022-08-25T07:34:52.397Z,23.07
2022-08-25T07:37:47.834Z,22.94
2022-08-25T07:40:23.417Z,22.83
2022-08-25T07:42:56.329Z,22.83
2022-08-25T07:45:30.634Z,22.90
2022-08-25T07:48:07.388Z,22.98
2022-08-25T07:50:38.939Z,22.96
2022-08-25T07:53:07.238Z,22.89
2022-08-25T07:55:36.599Z,22.77
2022-08-25T07:58:07.691Z,22.71
2022-08-25T08:00:37.679Z,22.69
2022-08-25T08:03:12.970Z,22.74
2022-08-25T08:05:48.109Z,23.10
2022-08-25T08:08:17.199Z,23.34
2022-08-25T08:11:04.132Z,23.60
2022-08-25T08:13:38.058Z,23.98
2022-08-25T08:16:13.242Z,24.17
2022-08-25T08:18:43.686Z,24.43
2022-08-25T08:21:20.011Z,24.57
2022-08-25T08:23:49.677Z,24.65
2022-08-25T08:26:18.237Z,24.83
2022-08-25T08:28:51.918Z,24.78
2022-08-25T08:31:22.584Z,24.81
2022-08-25T08:33:51.214Z,24.82
2022-08-25T08:36:19.824Z,24.77
2022-08-25T08:38:49.364Z,24.66
2022-08-25T08:42:19.502Z,24.80
2022-08-25T08:45:15.142Z,24.92
2022-08-25T08:48:16.261Z,24.95
2022-08-25T08:51:03.002Z,24.87
2022-08-25T08:53:57.264Z,24.71
2022-08-25T08:56:31.871Z,24.63
2022-08-25T08:59:07.575Z,24.26
2022-08-25T09:01:56.628Z,24.30
2022-08-25T09:04:41.748Z,24.37
2022-08-25T09:07:21.716Z,24.57
2022-08-25T09:09:52.336Z,24.62
2022-08-25T09:12:41.311Z,24.52
2022-08-25T09:16:08.292Z,24.62
2022-08-25T09:19:23.571Z,24.67
2022-08-25T09:22:01.389Z,24.80
2022-08-25T09:25:08.853Z,24.68
2022-08-25T09:28:39.812Z,24.91
2022-08-25T09:31:29.441Z,25.19
2022-08-25T09:34:04.536Z,25.25
2022-08-25T09:36:37.512Z,25.26
2022-08-25T09:39:07.989Z,25.39
2022-08-25T09:42:01.257Z,25.48
2022-08-25T09:44:38.839Z,25.83
2022-08-25T09:47:15.296Z,25.67
2022-08-25T09:49:49.185Z,25.54
2022-08-25T09:52:33.010Z,25.55
2022-08-25T09:55:29.111Z,25.55
2022-08-25T09:58:00.702Z,25.64
2022-08-25T10:00:35.105Z,25.68
2022-08-25T10:03:24.493Z,25.71
2022-08-25T10:05:58.882Z,25.87
2022-08-25T10:08:44.977Z,25.98
2022-08-25T10:11:42.959Z,25.98
2022-08-25T10:14:44.469Z,25.96
2022-08-25T10:17:29.532Z,25.79
2022-08-25T10:20:09.785Z,25.75
2022-08-25T10:22:40.476Z,25.53
2022-08-25T10:25:13.229Z,25.51
2022-08-25T10:28:14.740Z,25.65
2022-08-25T10:31:22.066Z,25.98
2022-08-25T10:34:45.998Z,26.05
2022-08-25T10:38:05.085Z,25.89
2022-08-25T10:40:53.255Z,26.07
2022-08-25T10:43:50.025Z,25.95
2022-08-25T10:47:20.679Z,25.88
2022-08-25T10:49:56.562Z,26.74
2022-08-25T10:52:55.903Z,27.09
2022-08-25T10:55:52.398Z,27.50
2022-08-25T10:58:45.358Z,27.60
2022-08-25T11:01:43.745Z,27.37
2022-08-25T11:04:43.467Z,27.31
2022-08-25T11:07:25.519Z,26.90
2022-08-25T11:10:00.771Z,26.87
2022-08-25T11:12:44.988Z,27.42
2022-08-25T11:15:29.478Z,27.62
2022-08-25T11:18:14.006Z,27.61
2022-08-25T11:21:02.547Z,27.78
2022-08-25T11:23:39.786Z,27.87
2022-08-25T11:26:12.462Z,27.84
2022-08-25T11:29:01.101Z,27.59
2022-08-25T11:31:29.873Z,27.75
2022-08-25T11:33:58.985Z,27.96
2022-08-25T11:36:37.541Z,28.11
2022-08-25T11:39:53.400Z,28.19
2022-08-25T11:43:01.626Z,28.12
2022-08-25T11:46:08.358Z,28.28
2022-08-25T11:49:08.100Z,28.28
2022-08-25T11:51:45.089Z,28.25
2022-08-25T11:54:28.752Z,28.34
2022-08-25T11:57:17.475Z,28.34
2022-08-25T11:59:52.418Z,28.34
2022-08-25T12:02:45.898Z,28.39
2022-08-25T12:05:20.084Z,28.74
2022-08-25T12:08:07.039Z,28.91
2022-08-25T12:11:11.254Z,28.81
2022-08-25T12:13:51.030Z,28.83
2022-08-25T12:16:34.912Z,28.88
2022-08-25T12:19:34.115Z,28.86
2022-08-25T12:22:03.425Z,28.89
2022-08-25T12:24:47.712Z,28.97
2022-08-25T12:27:26.796Z,28.93
2022-08-25T12:30:15.961Z,28.80
2022-08-25T12:33:15.689Z,28.84
2022-08-25T12:36:03.696Z,29.02
2022-08-25T12:38:47.305Z,28.74
2022-08-25T12:41:33.779Z,28.78
2022-08-25T12:44:44.466Z,28.68
2022-08-25T12:47:32.335Z,28.65
2022-08-25T12:50:28.259Z,29.03
2022-08-25T12:53:08.860Z,29.25
2022-08-25T12:55:42.137Z,29.07
2022-08-25T12:58:11.690Z,28.78
2022-08-25T13:00:56.820Z,29.01
2022-08-25T13:04:10.265Z,29.00
2022-08-25T13:07:23.727Z,28.90
2022-08-25T13:10:55.907Z,29.26
2022-08-25T13:14:01.091Z,29.37
2022-08-25T13:16:30.427Z,29.41
2022-08-25T13:19:03.840Z,29.56
2022-08-25T13:21:40.563Z,29.60
2022-08-25T13:24:40.171Z,29.28
2022-08-25T13:27:22.682Z,29.12
2022-08-25T13:29:58.322Z,29.00
2022-08-25T13:32:36.621Z,29.40
2022-08-25T13:35:20.565Z,29.71
2022-08-25T13:37:50.472Z,29.59
2022-08-25T13:40:27.003Z,29.49
2022-08-25T13:43:01.123Z,29.28
2022-08-25T13:45:41.264Z,29.35
2022-08-25T13:48:22.482Z,29.35
2022-08-25T13:50:52.702Z,29.36
2022-08-25T13:53:30.505Z,29.29
2022-08-25T13:56:02.987Z,29.37
2022-08-25T13:58:45.207Z,29.24
2022-08-25T14:01:48.499Z,29.42
2022-08-25T14:04:51.104Z,29.54
2022-08-25T14:07:20.816Z,29.57
2022-08-25T14:10:00.146Z,29.53
2022-08-25T14:12:45.405Z,29.45
2022-08-25T14:15:29.644Z,29.33
2022-08-25T14:18:14.002Z,29.23
2022-08-25T14:20:50.745Z,29.30
2022-08-25T14:23:26.086Z,29.31
2022-08-25T14:25:57.782Z,29.35
2022-08-25T14:28:30.298Z,29.46
2022-08-25T14:31:08.478Z,29.57
2022-08-25T14:33:59.499Z,29.68
2022-08-25T14:36:30.717Z,29.76
2022-08-25T14:38:59.548Z,29.61
2022-08-25T14:41:28.487Z,29.86
2022-08-25T14:43:56.334Z,30.19
2022-08-25T14:46:28.675Z,30.05
2022-08-25T14:49:00.258Z,29.98
2022-08-25T14:51:32.019Z,29.87
2022-08-25T14:54:04.249Z,30.12
2022-08-25T14:56:33.038Z,29.87
2022-08-25T14:59:02.131Z,29.42
2022-08-25T15:01:34.017Z,29.31
2022-08-25T15:04:08.032Z,28.80
2022-08-25T15:06:37.411Z,28.63
2022-08-25T15:09:12.787Z,28.75
2022-08-25T15:11:51.019Z,28.87
2022-08-25T15:14:28.554Z,28.62
2022-08-25T15:17:01.794Z,28.46
2022-08-25T15:19:29.891Z,28.36
2022-08-25T15:21:59.347Z,28.42
2022-08-25T15:24:28.690Z,28.52
2022-08-25T15:27:00.400Z,28.57
2022-08-25T15:29:31.044Z,28.66
2022-08-25T15:32:01.936Z,28.70
2022-08-25T15:34:30.874Z,28.62
2022-08-25T15:37:05.984Z,28.56
2022-08-25T15:39:35.179Z,28.62
2022-08-25T15:42:03.975Z,28.42
2022-08-25T15:44:33.435Z,28.51
2022-08-25T15:47:03.919Z,28.44
2022-08-25T15:49:33.270Z,28.50
2022-08-25T15:52:01.777Z,28.30
2022-08-25T15:54:31.249Z,28.31
2022-08-25T15:56:59.824Z,28.38
2022-08-25T15:59:29.086Z,28.44
2022-08-25T16:01:57.429Z,28.44
2022-08-25T16:04:28.911Z,28.44
2022-08-25T16:06:57.041Z,28.41
2022-08-25T16:09:26.726Z,28.31
2022-08-25T16:11:55.877Z,28.23
2022-08-25T16:14:27.730Z,28.16
2022-08-25T16:16:58.523Z,28.10
2022-08-25T16:19:29.428Z,28.08
2022-08-25T16:21:59.154Z,28.08
2022-08-25T16:24:28.200Z,27.98
2022-08-25T16:27:11.650Z,27.83
2022-08-25T16:29:43.844Z,27.90
2022-08-25T16:32:15.127Z,27.98
2022-08-25T16:34:44.291Z,27.93
2022-08-25T16:37:13.515Z,27.87
2022-08-25T16:39:45.431Z,27.80
2022-08-25T16:42:14.329Z,27.78
2022-08-25T16:44:42.430Z,27.71
2022-08-25T16:47:14.105Z,27.62
2022-08-25T16:49:42.765Z,27.53
2022-08-25T16:52:31.135Z,27.51
2022-08-25T16:55:15.163Z,27.60
2022-08-25T16:57:51.760Z,27.58
2022-08-25T17:00:28.167Z,27.53
2022-08-25T17:02:59.583Z,27.48
2022-08-25T17:05:33.371Z,27.48
2022-08-25T17:08:20.636Z,27.44
2022-08-25T17:10:48.882Z,27.34
2022-08-25T17:13:17.133Z,27.31
2022-08-25T17:15:48.987Z,27.29
2022-08-25T17:18:20.576Z,27.23
2022-08-25T17:20:48.749Z,27.17
2022-08-25T17:23:21.056Z,27.14
2022-08-25T17:25:51.974Z,27.11
2022-08-25T17:28:20.059Z,27.06
2022-08-25T17:30:49.657Z,26.91
2022-08-25T17:33:18.227Z,26.90
2022-08-25T17:35:54.871Z,26.86
2022-08-25T17:38:26.241Z,26.81
2022-08-25T17:41:01.380Z,26.75
2022-08-25T17:43:31.258Z,26.72
2022-08-25T17:46:00.743Z,26.66
2022-08-25T17:48:33.066Z,26.62
2022-08-25T17:51:02.674Z,26.57
2022-08-25T17:53:30.822Z,26.54
2022-08-25T17:56:09.585Z,26.52
2022-08-25T17:58:39.408Z,26.46
2022-08-25T18:01:20.013Z,26.40
2022-08-25T18:03:51.693Z,26.35
2022-08-25T18:06:23.111Z,26.27
2022-08-25T18:08:57.540Z,26.24
2022-08-25T18:11:30.107Z,26.18
2022-08-25T18:13:59.668Z,26.10
2022-08-25T18:16:29.384Z,26.03
2022-08-25T18:18:59.249Z,25.96
2022-08-25T18:21:31.013Z,25.89
2022-08-25T18:24:01.894Z,25.78
2022-08-25T18:26:30.536Z,25.75
2022-08-25T18:29:00.674Z,25.64
2022-08-25T18:31:29.488Z,25.58
2022-08-25T18:34:02.146Z,25.52
2022-08-25T18:36:30.769Z,25.46
2022-08-25T18:39:18.047Z,25.34
2022-08-25T18:41:48.212Z,25.29
2022-08-25T18:44:17.060Z,25.20
2022-08-25T18:46:46.030Z,25.12
2022-08-25T18:49:15.643Z,25.05
2022-08-25T18:51:48.172Z,25.01
2022-08-25T18:54:23.100Z,24.98
2022-08-25T18:56:56.203Z,24.99
2022-08-25T18:59:24.862Z,24.93
2022-08-25T19:01:54.244Z,24.88
2022-08-25T19:04:28.516Z,24.79
2022-08-25T19:07:02.117Z,24.70
2022-08-25T19:09:36.482Z,24.66
2022-08-25T19:12:05.809Z,24.63
2022-08-25T19:14:34.688Z,24.60
2022-08-25T19:17:03.919Z,24.58
2022-08-25T19:19:32.574Z,24.56
2022-08-25T19:22:01.450Z,24.51
2022-08-25T19:24:35.493Z,24.47
2022-08-25T19:27:12.865Z,24.46
2022-08-25T19:29:42.053Z,24.44
2022-08-25T19:32:12.699Z,24.42
2022-08-25T19:34:47.444Z,24.39
2022-08-25T19:37:27.010Z,24.33
2022-08-25T19:39:57.425Z,24.30
2022-08-25T19:42:35.162Z,24.28
2022-08-25T19:45:10.966Z,24.26
2022-08-25T19:47:44.402Z,24.24
2022-08-25T19:50:16.717Z,24.22
2022-08-25T19:52:47.061Z,24.20
2022-08-25T19:55:22.666Z,24.15
2022-08-25T19:57:54.702Z,24.11
2022-08-25T20:00:29.430Z,24.08
2022-08-25T20:03:01.684Z,24.06
2022-08-25T20:05:31.223Z,24.02
2022-08-25T20:07:59.866Z,24.00
2022-08-25T20:10:31.867Z,23.97
2022-08-25T20:13:05.328Z,23.93
2022-08-25T20:15:39.023Z,23.89
2022-08-25T20:18:08.523Z,23.83
2022-08-25T20:20:36.553Z,23.83
2022-08-25T20:23:24.371Z,23.83
2022-08-25T20:25:52.886Z,23.81
2022-08-25T20:28:20.782Z,23.81
2022-08-25T20:30:48.697Z,23.80
2022-08-25T20:33:22.687Z,23.77
2022-08-25T20:35:53.158Z,23.76
2022-08-25T20:38:21.442Z,23.74
2022-08-25T20:40:49.300Z,23.72
2022-08-25T20:43:17.824Z,23.71
2022-08-25T20:45:45.879Z,23.70
2022-08-25T20:48:13.977Z,23.62
2022-08-25T20:50:41.947Z,23.61
2022-08-25T20:53:10.270Z,23.65
2022-08-25T20:55:42.705Z,23.64
2022-08-25T20:58:12.681Z,23.63
2022-08-25T21:00:44.776Z,23.62
2022-08-25T21:03:12.796Z,23.59
2022-08-25T21:05:43.013Z,23.58
2022-08-25T21:08:11.042Z,23.56
2022-08-25T21:10:40.850Z,23.52
2022-08-25T21:13:08.766Z,23.51
2022-08-25T21:15:40.316Z,23.47
2022-08-25T21:18:08.477Z,23.45
2022-08-25T21:20:39.969Z,23.43
2022-08-25T21:23:08.360Z,23.40
2022-08-25T21:25:41.881Z,23.37
2022-08-25T21:28:09.737Z,23.32
2022-08-25T21:30:44.707Z,23.30
2022-08-25T21:33:15.585Z,23.27
2022-08-25T21:35:43.962Z,23.25
2022-08-25T21:38:11.813Z,23.24
2022-08-25T21:40:39.753Z,23.23
2022-08-25T21:43:12.902Z,23.20
2022-08-25T21:45:46.652Z,23.15
2022-08-25T21:48:16.361Z,23.12
2022-08-25T21:50:44.217Z,23.10
2022-08-25T21:53:12.984Z,23.07
2022-08-25T21:55:44.097Z,23.11
2022-08-25T21:58:11.940Z,23.11
2022-08-25T22:00:39.952Z,23.06
2022-08-25T22:03:07.967Z,23.02
2022-08-25T22:05:39.450Z,22.98
2022-08-25T22:08:08.497Z,22.93
2022-08-25T22:10:44.560Z,22.92
2022-08-25T22:13:12.719Z,22.89
2022-08-25T22:15:40.575Z,22.90
2022-08-25T22:18:08.791Z,22.92
2022-08-25T22:20:36.838Z,22.90
2022-08-25T22:23:09.861Z,22.84
2022-08-25T22:25:48.411Z,22.80
2022-08-25T22:28:16.408Z,22.78
2022-08-25T22:30:44.328Z,22.76
2022-08-25T22:33:13.071Z,22.77
2022-08-25T22:35:41.416Z,22.68
2022-08-25T22:38:12.597Z,22.71
2022-08-25T22:40:41.093Z,22.67
2022-08-25T22:43:11.001Z,22.59
2022-08-25T22:45:39.199Z,22.57
2022-08-25T22:48:07.494Z,22.56
2022-08-25T22:50:37.296Z,22.55
2022-08-25T22:53:05.182Z,22.51
2022-08-25T22:55:33.059Z,22.48
2022-08-25T22:58:00.940Z,22.45
2022-08-25T23:00:28.778Z,22.43
2022-08-25T23:02:56.932Z,22.43
2022-08-25T23:05:24.819Z,22.40
2022-08-25T23:07:52.721Z,22.40
2022-08-25T23:10:22.759Z,22.39
2022-08-25T23:12:51.555Z,22.37
2022-08-25T23:15:19.395Z,22.36
2022-08-25T23:17:47.299Z,22.35
2022-08-25T23:20:35.266Z,22.32
2022-08-25T23:23:05.686Z,22.27
2022-08-25T23:25:40.444Z,22.25
2022-08-25T23:28:08.387Z,22.29
2022-08-25T23:30:39.000Z,22.27
2022-08-25T23:33:07.059Z,22.25
2022-08-25T23:35:35.090Z,22.21
2022-08-25T23:38:03.287Z,22.23
2022-08-25T23:40:32.296Z,22.22
2022-08-25T23:43:00.934Z,22.18
2022-08-25T23:45:29.923Z,22.15
2022-08-25T23:47:58.154Z,22.12
2022-08-25T23:50:26.294Z,22.08
2022-08-25T23:52:54.104Z,22.03
2022-08-25T23:55:22.446Z,22.07
2022-08-25T23:57:51.542Z,22.06
